sensor_id;sensor_type;location;lat;lon;timestamp;pressure;altitude;pressure_sealevel;temperature;humidity
43824;BME280;29470;53.550;9.926;2023-09-07T00:03:27;101912.31;;;25.41;69.67
43824;BME280;29470;53.550;9.926;2023-09-07T00:08:30;101913.69;;;25.27;70.91
43824;BME280;29470;53.550;9.926;2023-09-07T00:13:35;101905.22;;;25.08;71.60
43824;BME280;29470;53.550;9.926;2023-09-07T00:18:39;101914.88;;;25.06;71.96
43824;BME280;29470;53.550;9.926;2023-09-07T00:23:42;101909.22;;;24.92;73.25
43824;BME280;29470;53.550;9.926;2023-09-07T00:28:45;101912.47;;;24.83;73.81
43824;BME280;29470;53.550;9.926;2023-09-07T00:33:49;101922.69;;;24.71;75.57
43824;BME280;29470;53.550;9.926;2023-09-07T00:38:52;101925.28;;;24.69;75.04
43824;BME280;29470;53.550;9.926;2023-09-07T00:43:55;101917.94;;;24.90;72.92
43824;BME280;29470;53.550;9.926;2023-09-07T00:48:59;101918.59;;;24.81;72.54
43824;BME280;29470;53.550;9.926;2023-09-07T00:54:03;101909.78;;;24.82;71.49
43824;BME280;29470;53.550;9.926;2023-09-07T00:59:07;101910.47;;;24.75;71.19
43824;BME280;29470;53.550;9.926;2023-09-07T01:04:12;101903.34;;;24.43;71.15
43824;BME280;29470;53.550;9.926;2023-09-07T01:09:18;101906.59;;;24.34;71.62
43824;BME280;29470;53.550;9.926;2023-09-07T01:14:22;101898.63;;;24.63;69.24
43824;BME280;29470;53.550;9.926;2023-09-07T01:19:26;101903.91;;;24.62;69.87
43824;BME280;29470;53.550;9.926;2023-09-07T01:24:31;101900.91;;;24.80;68.58
43824;BME280;29470;53.550;9.926;2023-09-07T01:29:35;101894.25;;;24.64;69.81
43824;BME280;29470;53.550;9.926;2023-09-07T01:34:39;101901.16;;;24.59;69.81
43824;BME280;29470;53.550;9.926;2023-09-07T01:39:44;101906.88;;;24.44;71.27
43824;BME280;29470;53.550;9.926;2023-09-07T01:44:47;101898.44;;;24.26;71.75
43824;BME280;29470;53.550;9.926;2023-09-07T01:49:50;101900.31;;;24.31;71.68
43824;BME280;29470;53.550;9.926;2023-09-07T01:54:55;101907.25;;;24.27;72.35
43824;BME280;29470;53.550;9.926;2023-09-07T01:59:58;101907.44;;;24.33;70.96
43824;BME280;29470;53.550;9.926;2023-09-07T02:05:01;101897.97;;;24.40;69.80
43824;BME280;29470;53.550;9.926;2023-09-07T02:10:06;101908.50;;;23.83;72.40
43824;BME280;29470;53.550;9.926;2023-09-07T02:15:09;101912.88;;;23.83;72.12
43824;BME280;29470;53.550;9.926;2023-09-07T02:20:12;101911.00;;;24.34;69.23
43824;BME280;29470;53.550;9.926;2023-09-07T02:25:17;101914.88;;;24.18;69.86
43824;BME280;29470;53.550;9.926;2023-09-07T02:30:21;101910.50;;;24.18;69.72
43824;BME280;29470;53.550;9.926;2023-09-07T02:35:24;101915.72;;;23.63;71.82
43824;BME280;29470;53.550;9.926;2023-09-07T02:40:28;101922.25;;;23.73;72.32
43824;BME280;29470;53.550;9.926;2023-09-07T02:45:31;101929.72;;;23.35;72.71
43824;BME280;29470;53.550;9.926;2023-09-07T02:50:34;101931.22;;;23.52;71.51
43824;BME280;29470;53.550;9.926;2023-09-07T02:55:40;101925.63;;;23.96;70.03
43824;BME280;29470;53.550;9.926;2023-09-07T03:00:43;101929.47;;;24.05;69.60
43824;BME280;29470;53.550;9.926;2023-09-07T03:05:48;101923.94;;;23.98;70.09
43824;BME280;29470;53.550;9.926;2023-09-07T03:10:53;101927.13;;;23.88;70.48
43824;BME280;29470;53.550;9.926;2023-09-07T03:15:56;101923.75;;;23.92;70.27
43824;BME280;29470;53.550;9.926;2023-09-07T03:21:00;101920.38;;;23.98;69.30
43824;BME280;29470;53.550;9.926;2023-09-07T03:26:05;101931.03;;;23.74;70.98
43824;BME280;29470;53.550;9.926;2023-09-07T03:31:12;101936.13;;;23.67;71.25
43824;BME280;29470;53.550;9.926;2023-09-07T03:36:16;101952.16;;;23.48;72.20
43824;BME280;29470;53.550;9.926;2023-09-07T03:41:20;101949.22;;;23.64;71.42
43824;BME280;29470;53.550;9.926;2023-09-07T03:46:23;101949.00;;;23.58;72.49
43824;BME280;29470;53.550;9.926;2023-09-07T03:51:26;101955.03;;;23.54;72.49
43824;BME280;29470;53.550;9.926;2023-09-07T03:56:31;101962.91;;;23.52;73.19
43824;BME280;29470;53.550;9.926;2023-09-07T04:01:37;101957.06;;;23.37;73.39
43824;BME280;29470;53.550;9.926;2023-09-07T04:06:40;101956.16;;;23.12;75.22
43824;BME280;29470;53.550;9.926;2023-09-07T04:11:44;101953.31;;;23.07;74.81
43824;BME280;29470;53.550;9.926;2023-09-07T04:16:48;101951.13;;;23.20;74.22
43824;BME280;29470;53.550;9.926;2023-09-07T04:21:52;101951.94;;;23.17;74.21
43824;BME280;29470;53.550;9.926;2023-09-07T04:27:00;101954.16;;;23.06;74.34
43824;BME280;29470;53.550;9.926;2023-09-07T04:32:04;101970.06;;;23.08;74.51
43824;BME280;29470;53.550;9.926;2023-09-07T04:37:08;101966.84;;;23.17;73.97
43824;BME280;29470;53.550;9.926;2023-09-07T04:42:15;101969.59;;;23.20;73.99
43824;BME280;29470;53.550;9.926;2023-09-07T04:47:18;101966.25;;;23.00;73.75
43824;BME280;29470;53.550;9.926;2023-09-07T04:52:21;101976.06;;;23.04;74.21
43824;BME280;29470;53.550;9.926;2023-09-07T04:57:30;101970.19;;;23.35;71.78
43824;BME280;29470;53.550;9.926;2023-09-07T05:02:33;101978.75;;;23.28;72.40
43824;BME280;29470;53.550;9.926;2023-09-07T05:07:41;101982.00;;;22.98;73.38
43824;BME280;29470;53.550;9.926;2023-09-07T05:12:45;101983.28;;;23.32;71.02
43824;BME280;29470;53.550;9.926;2023-09-07T05:17:52;101982.94;;;23.23;71.34
43824;BME280;29470;53.550;9.926;2023-09-07T05:22:55;101978.97;;;23.34;70.51
43824;BME280;29470;53.550;9.926;2023-09-07T05:28:02;101984.38;;;23.15;71.60
43824;BME280;29470;53.550;9.926;2023-09-07T05:33:05;101983.59;;;22.93;72.21
43824;BME280;29470;53.550;9.926;2023-09-07T05:38:09;101989.16;;;23.01;71.27
43824;BME280;29470;53.550;9.926;2023-09-07T05:43:14;101986.22;;;23.40;69.88
43824;BME280;29470;53.550;9.926;2023-09-07T05:48:19;101991.03;;;23.52;68.50
43824;BME280;29470;53.550;9.926;2023-09-07T05:53:22;101998.47;;;22.91;71.63
43824;BME280;29470;53.550;9.926;2023-09-07T05:58:29;101998.13;;;23.29;69.79
43824;BME280;29470;53.550;9.926;2023-09-07T06:03:33;101995.09;;;24.18;66.16
43824;BME280;29470;53.550;9.926;2023-09-07T06:08:37;101998.88;;;24.26;65.12
43824;BME280;29470;53.550;9.926;2023-09-07T06:13:42;101998.38;;;24.11;66.40
43824;BME280;29470;53.550;9.926;2023-09-07T06:18:45;102001.38;;;24.78;63.86
43824;BME280;29470;53.550;9.926;2023-09-07T06:23:48;102014.53;;;23.94;65.99
43824;BME280;29470;53.550;9.926;2023-09-07T06:28:53;102003.03;;;24.73;64.15
43824;BME280;29470;53.550;9.926;2023-09-07T06:33:56;102010.06;;;25.03;62.64
43824;BME280;29470;53.550;9.926;2023-09-07T06:39:03;102003.59;;;26.60;55.45
43824;BME280;29470;53.550;9.926;2023-09-07T06:44:08;101985.81;;;28.40;49.05
43824;BME280;29470;53.550;9.926;2023-09-07T06:49:11;101986.53;;;33.03;39.56
43824;BME280;29470;53.550;9.926;2023-09-07T06:54:15;101998.34;;;35.59;34.11
43824;BME280;29470;53.550;9.926;2023-09-07T06:59:19;101988.03;;;35.86;33.39
43824;BME280;29470;53.550;9.926;2023-09-07T07:04:23;102000.66;;;38.30;30.10
43824;BME280;29470;53.550;9.926;2023-09-07T07:09:26;101988.31;;;36.20;32.83
43824;BME280;29470;53.550;9.926;2023-09-07T07:14:33;101986.84;;;34.81;34.68
43824;BME280;29470;53.550;9.926;2023-09-07T07:19:36;102007.88;;;33.22;36.51
43824;BME280;29470;53.550;9.926;2023-09-07T07:24:39;102007.16;;;32.86;37.05
43824;BME280;29470;53.550;9.926;2023-09-07T07:29:44;101998.88;;;34.46;34.62
43824;BME280;29470;53.550;9.926;2023-09-07T07:34:48;102013.09;;;33.48;36.71
43824;BME280;29470;53.550;9.926;2023-09-07T07:39:51;102007.78;;;33.44;36.72
43824;BME280;29470;53.550;9.926;2023-09-07T07:44:55;102008.84;;;33.04;37.18
43824;BME280;29470;53.550;9.926;2023-09-07T07:49:59;102017.81;;;31.26;40.53
43824;BME280;29470;53.550;9.926;2023-09-07T07:55:02;102025.69;;;29.74;43.75
43824;BME280;29470;53.550;9.926;2023-09-07T08:00:12;102026.19;;;28.13;48.18
43824;BME280;29470;53.550;9.926;2023-09-07T08:05:26;102034.47;;;27.82;49.26
43824;BME280;29470;53.550;9.926;2023-09-07T08:10:29;102025.88;;;27.99;49.10
43824;BME280;29470;53.550;9.926;2023-09-07T08:15:35;102029.13;;;27.34;49.89
43824;BME280;29470;53.550;9.926;2023-09-07T08:20:40;102015.13;;;27.91;49.99
43824;BME280;29470;53.550;9.926;2023-09-07T08:25:44;102004.66;;;27.07;52.02
43824;BME280;29470;53.550;9.926;2023-09-07T08:30:52;102016.44;;;27.66;50.42
43824;BME280;29470;53.550;9.926;2023-09-07T08:36:00;102005.09;;;28.25;49.16
43824;BME280;29470;53.550;9.926;2023-09-07T08:41:08;102013.06;;;27.74;49.57
43824;BME280;29470;53.550;9.926;2023-09-07T08:46:37;102021.88;;;28.21;49.28
43824;BME280;29470;53.550;9.926;2023-09-07T08:51:40;102017.47;;;27.74;49.76
43824;BME280;29470;53.550;9.926;2023-09-07T08:56:46;102018.00;;;27.10;51.85
43824;BME280;29470;53.550;9.926;2023-09-07T09:01:57;102007.38;;;27.10;52.71
43824;BME280;29470;53.550;9.926;2023-09-07T09:07:00;102007.50;;;27.16;52.32
43824;BME280;29470;53.550;9.926;2023-09-07T09:12:09;102007.28;;;27.49;51.69
43824;BME280;29470;53.550;9.926;2023-09-07T09:17:14;102011.06;;;27.61;50.97
43824;BME280;29470;53.550;9.926;2023-09-07T09:22:23;102011.88;;;27.57;50.47
43824;BME280;29470;53.550;9.926;2023-09-07T09:27:26;102009.13;;;28.03;49.29
43824;BME280;29470;53.550;9.926;2023-09-07T09:32:31;102001.59;;;28.89;47.38
43824;BME280;29470;53.550;9.926;2023-09-07T09:37:42;102007.97;;;28.39;47.65
43824;BME280;29470;53.550;9.926;2023-09-07T09:42:49;102008.53;;;28.76;47.38
43824;BME280;29470;53.550;9.926;2023-09-07T09:47:56;102003.84;;;28.61;47.19
43824;BME280;29470;53.550;9.926;2023-09-07T09:53:03;101990.56;;;28.63;46.09
43824;BME280;29470;53.550;9.926;2023-09-07T09:58:08;101993.41;;;28.15;46.69
43824;BME280;29470;53.550;9.926;2023-09-07T10:03:18;101998.59;;;28.07;45.97
43824;BME280;29470;53.550;9.926;2023-09-07T10:08:30;101983.50;;;28.08;46.07
43824;BME280;29470;53.550;9.926;2023-09-07T10:13:58;101986.09;;;29.30;43.95
43824;BME280;29470;53.550;9.926;2023-09-07T10:25:52;101972.78;;;29.31;43.61
43824;BME280;29470;53.550;9.926;2023-09-07T10:31:00;101968.69;;;28.83;43.55
43824;BME280;29470;53.550;9.926;2023-09-07T10:36:05;101956.16;;;29.52;42.35
43824;BME280;29470;53.550;9.926;2023-09-07T10:41:10;101962.66;;;29.82;41.49
43824;BME280;29470;53.550;9.926;2023-09-07T10:46:13;101955.72;;;30.06;41.24
43824;BME280;29470;53.550;9.926;2023-09-07T10:51:16;101945.06;;;30.03;41.27
43824;BME280;29470;53.550;9.926;2023-09-07T10:56:24;101949.88;;;29.46;41.68
43824;BME280;29470;53.550;9.926;2023-09-07T11:01:27;101942.66;;;29.37;41.94
43824;BME280;29470;53.550;9.926;2023-09-07T11:06:31;101932.34;;;29.73;41.76
43824;BME280;29470;53.550;9.926;2023-09-07T11:11:36;101937.16;;;29.21;42.00
43824;BME280;29470;53.550;9.926;2023-09-07T11:16:40;101933.88;;;29.46;40.95
43824;BME280;29470;53.550;9.926;2023-09-07T11:21:45;101928.81;;;29.75;40.51
43824;BME280;29470;53.550;9.926;2023-09-07T11:26:51;101925.56;;;30.17;39.10
43824;BME280;29470;53.550;9.926;2023-09-07T11:31:54;101920.78;;;29.74;40.58
43824;BME280;29470;53.550;9.926;2023-09-07T11:37:08;101918.44;;;30.12;40.31
43824;BME280;29470;53.550;9.926;2023-09-07T11:42:12;101917.47;;;30.00;40.01
43824;BME280;29470;53.550;9.926;2023-09-07T11:47:16;101907.09;;;30.57;39.19
43824;BME280;29470;53.550;9.926;2023-09-07T11:52:38;101911.50;;;30.44;39.12
43824;BME280;29470;53.550;9.926;2023-09-07T11:57:47;101905.19;;;30.28;39.64
43824;BME280;29470;53.550;9.926;2023-09-07T12:02:52;101902.91;;;31.18;38.64
43824;BME280;29470;53.550;9.926;2023-09-07T12:07:55;101903.50;;;30.46;39.97
43824;BME280;29470;53.550;9.926;2023-09-07T12:13:01;101897.19;;;30.31;40.35
43824;BME280;29470;53.550;9.926;2023-09-07T12:18:06;101893.75;;;30.51;39.63
43824;BME280;29470;53.550;9.926;2023-09-07T12:23:11;101893.72;;;30.45;39.45
43824;BME280;29470;53.550;9.926;2023-09-07T12:28:15;101888.59;;;31.07;38.96
43824;BME280;29470;53.550;9.926;2023-09-07T12:33:18;101883.03;;;30.40;40.41
43824;BME280;29470;53.550;9.926;2023-09-07T12:38:21;101875.94;;;30.47;38.18
43824;BME280;29470;53.550;9.926;2023-09-07T12:43:30;101868.00;;;30.62;38.10
43824;BME280;29470;53.550;9.926;2023-09-07T12:48:34;101861.84;;;30.85;37.39
43824;BME280;29470;53.550;9.926;2023-09-07T12:53:37;101853.56;;;30.23;37.96
43824;BME280;29470;53.550;9.926;2023-09-07T12:58:42;101848.34;;;30.43;37.05
43824;BME280;29470;53.550;9.926;2023-09-07T13:03:45;101843.88;;;30.40;37.71
43824;BME280;29470;53.550;9.926;2023-09-07T13:08:48;101838.66;;;30.68;37.30
43824;BME280;29470;53.550;9.926;2023-09-07T13:13:52;101844.03;;;30.84;36.79
43824;BME280;29470;53.550;9.926;2023-09-07T13:18:55;101839.44;;;30.46;38.05
43824;BME280;29470;53.550;9.926;2023-09-07T13:23:59;101833.31;;;30.65;37.36
43824;BME280;29470;53.550;9.926;2023-09-07T13:29:03;101832.47;;;30.99;37.09
43824;BME280;29470;53.550;9.926;2023-09-07T13:34:06;101831.59;;;30.86;36.45
43824;BME280;29470;53.550;9.926;2023-09-07T13:39:08;101826.97;;;30.40;36.49
43824;BME280;29470;53.550;9.926;2023-09-07T13:44:13;101822.75;;;31.23;35.04
43824;BME280;29470;53.550;9.926;2023-09-07T13:49:16;101830.72;;;31.10;33.90
43824;BME280;29470;53.550;9.926;2023-09-07T13:54:19;101819.19;;;31.41;33.90
43824;BME280;29470;53.550;9.926;2023-09-07T13:59:24;101820.94;;;31.14;33.88
43824;BME280;29470;53.550;9.926;2023-09-07T14:04:30;101808.44;;;31.05;35.06
43824;BME280;29470;53.550;9.926;2023-09-07T14:09:33;101808.47;;;31.16;35.80
43824;BME280;29470;53.550;9.926;2023-09-07T14:14:37;101816.47;;;31.02;34.59
43824;BME280;29470;53.550;9.926;2023-09-07T14:19:40;101809.38;;;31.26;34.23
43824;BME280;29470;53.550;9.926;2023-09-07T14:24:43;101813.78;;;30.82;34.21
43824;BME280;29470;53.550;9.926;2023-09-07T14:29:47;101805.81;;;31.16;33.87
43824;BME280;29470;53.550;9.926;2023-09-07T14:34:50;101806.63;;;30.65;34.55
43824;BME280;29470;53.550;9.926;2023-09-07T14:39:53;101808.41;;;30.63;34.71
43824;BME280;29470;53.550;9.926;2023-09-07T14:45:00;101788.00;;;31.37;33.01
43824;BME280;29470;53.550;9.926;2023-09-07T14:50:04;101791.53;;;30.98;34.18
43824;BME280;29470;53.550;9.926;2023-09-07T14:55:08;101788.88;;;30.95;34.43
43824;BME280;29470;53.550;9.926;2023-09-07T15:00:14;101799.53;;;30.89;34.56
43824;BME280;29470;53.550;9.926;2023-09-07T15:05:17;101785.31;;;30.99;35.00
43824;BME280;29470;53.550;9.926;2023-09-07T15:10:20;101778.19;;;30.89;35.23
43824;BME280;29470;53.550;9.926;2023-09-07T15:15:24;101780.84;;;30.75;35.13
43824;BME280;29470;53.550;9.926;2023-09-07T15:20:27;101779.97;;;31.09;35.22
43824;BME280;29470;53.550;9.926;2023-09-07T15:25:30;101781.72;;;30.76;35.79
43824;BME280;29470;53.550;9.926;2023-09-07T15:30:34;101767.50;;;30.84;35.96
43824;BME280;29470;53.550;9.926;2023-09-07T15:35:37;101764.84;;;30.78;35.74
43824;BME280;29470;53.550;9.926;2023-09-07T15:40:40;101753.25;;;30.71;35.95
43824;BME280;29470;53.550;9.926;2023-09-07T15:45:47;101761.25;;;30.84;35.71
43824;BME280;29470;53.550;9.926;2023-09-07T15:50:51;101760.34;;;30.62;36.03
43824;BME280;29470;53.550;9.926;2023-09-07T15:55:55;101754.88;;;30.29;36.90
43824;BME280;29470;53.550;9.926;2023-09-07T16:00:59;101745.22;;;30.62;35.87
43824;BME280;29470;53.550;9.926;2023-09-07T16:06:03;101745.22;;;30.64;36.43
43824;BME280;29470;53.550;9.926;2023-09-07T16:11:05;101743.47;;;30.75;36.52
43824;BME280;29470;53.550;9.926;2023-09-07T16:16:09;101742.56;;;30.67;36.52
43824;BME280;29470;53.550;9.926;2023-09-07T16:21:12;101746.88;;;30.27;37.29
43824;BME280;29470;53.550;9.926;2023-09-07T16:26:18;101747.75;;;30.28;36.91
43824;BME280;29470;53.550;9.926;2023-09-07T16:31:23;101746.00;;;30.32;37.12
43824;BME280;29470;53.550;9.926;2023-09-07T16:36:26;101746.13;;;30.77;36.66
43824;BME280;29470;53.550;9.926;2023-09-07T16:41:29;101745.09;;;30.26;37.24
43824;BME280;29470;53.550;9.926;2023-09-07T16:46:33;101748.66;;;30.33;37.50
43824;BME280;29470;53.550;9.926;2023-09-07T16:51:36;101743.34;;;30.32;36.91
43824;BME280;29470;53.550;9.926;2023-09-07T16:56:38;101735.34;;;30.38;36.69
43824;BME280;29470;53.550;9.926;2023-09-07T17:01:44;101732.56;;;30.01;37.96
43824;BME280;29470;53.550;9.926;2023-09-07T17:06:47;101733.28;;;29.67;37.98
43824;BME280;29470;53.550;9.926;2023-09-07T17:12:03;101726.28;;;29.94;38.20
43824;BME280;29470;53.550;9.926;2023-09-07T17:17:08;101740.31;;;29.56;38.64
43824;BME280;29470;53.550;9.926;2023-09-07T17:22:12;101730.56;;;29.62;38.78
43824;BME280;29470;53.550;9.926;2023-09-07T17:27:15;101727.03;;;29.63;38.63
43824;BME280;29470;53.550;9.926;2023-09-07T17:32:19;101725.28;;;29.72;38.63
43824;BME280;29470;53.550;9.926;2023-09-07T17:37:22;101723.38;;;29.44;39.08
43824;BME280;29470;53.550;9.926;2023-09-07T17:42:25;101724.84;;;29.06;39.94
43824;BME280;29470;53.550;9.926;2023-09-07T17:47:29;101726.59;;;29.03;40.27
43824;BME280;29470;53.550;9.926;2023-09-07T17:52:32;101731.16;;;29.19;39.56
43824;BME280;29470;53.550;9.926;2023-09-07T17:57:35;101732.06;;;29.21;39.36
43824;BME280;29470;53.550;9.926;2023-09-07T18:02:40;101733.91;;;29.33;39.69
43824;BME280;29470;53.550;9.926;2023-09-07T18:07:43;101733.94;;;29.35;39.91
43824;BME280;29470;53.550;9.926;2023-09-07T18:12:46;101739.13;;;29.21;39.64
43824;BME280;29470;53.550;9.926;2023-09-07T18:17:50;101750.38;;;28.84;40.06
43824;BME280;29470;53.550;9.926;2023-09-07T18:22:53;101745.13;;;28.90;40.18
43824;BME280;29470;53.550;9.926;2023-09-07T18:27:55;101754.69;;;28.73;40.63
43824;BME280;29470;53.550;9.926;2023-09-07T18:33:00;101754.06;;;28.97;40.27
43824;BME280;29470;53.550;9.926;2023-09-07T18:38:04;101752.16;;;28.80;40.28
43824;BME280;29470;53.550;9.926;2023-09-07T18:43:06;101752.03;;;28.71;40.36
43824;BME280;29470;53.550;9.926;2023-09-07T18:48:11;101758.06;;;28.55;40.38
43824;BME280;29470;53.550;9.926;2023-09-07T18:53:14;101760.69;;;28.53;40.78
43824;BME280;29470;53.550;9.926;2023-09-07T18:58:17;101760.78;;;28.62;40.21
43824;BME280;29470;53.550;9.926;2023-09-07T19:03:21;101758.47;;;28.92;39.68
43824;BME280;29470;53.550;9.926;2023-09-07T19:08:24;101760.72;;;28.56;40.94
43824;BME280;29470;53.550;9.926;2023-09-07T19:13:27;101759.94;;;27.91;42.41
43824;BME280;29470;53.550;9.926;2023-09-07T19:18:31;101757.81;;;27.65;42.39
43824;BME280;29470;53.550;9.926;2023-09-07T19:23:35;101751.91;;;27.88;42.05
43824;BME280;29470;53.550;9.926;2023-09-07T19:28:38;101748.19;;;27.75;42.70
43824;BME280;29470;53.550;9.926;2023-09-07T19:33:42;101750.69;;;27.64;42.97
43824;BME280;29470;53.550;9.926;2023-09-07T19:38:45;101751.72;;;27.74;43.23
43824;BME280;29470;53.550;9.926;2023-09-07T19:43:48;101744.38;;;27.56;43.72
43824;BME280;29470;53.550;9.926;2023-09-07T19:48:53;101744.94;;;27.36;44.34
43824;BME280;29470;53.550;9.926;2023-09-07T19:53:56;101748.09;;;27.13;44.18
43824;BME280;29470;53.550;9.926;2023-09-07T19:59:00;101749.06;;;27.17;44.03
43824;BME280;29470;53.550;9.926;2023-09-07T20:04:11;101752.41;;;27.05;44.18
43824;BME280;29470;53.550;9.926;2023-09-07T20:09:15;101749.22;;;26.75;44.63
43824;BME280;29470;53.550;9.926;2023-09-07T20:14:19;101749.63;;;26.97;44.58
43824;BME280;29470;53.550;9.926;2023-09-07T20:19:25;101757.75;;;26.60;44.94
43824;BME280;29470;53.550;9.926;2023-09-07T20:24:28;101750.25;;;27.34;43.94
43824;BME280;29470;53.550;9.926;2023-09-07T20:29:31;101754.28;;;27.11;44.77
43824;BME280;29470;53.550;9.926;2023-09-07T20:34:35;101766.06;;;26.77;46.81
43824;BME280;29470;53.550;9.926;2023-09-07T20:39:38;101760.91;;;26.85;46.64
43824;BME280;29470;53.550;9.926;2023-09-07T20:44:41;101763.22;;;26.68;47.37
43824;BME280;29470;53.550;9.926;2023-09-07T20:49:45;101761.81;;;26.40;48.19
43824;BME280;29470;53.550;9.926;2023-09-07T20:54:48;101758.13;;;26.33;48.29
43824;BME280;29470;53.550;9.926;2023-09-07T20:59:52;101754.47;;;26.26;48.69
43824;BME280;29470;53.550;9.926;2023-09-07T21:04:59;101765.16;;;26.31;47.85
43824;BME280;29470;53.550;9.926;2023-09-07T21:10:10;101762.44;;;26.26;47.51
43824;BME280;29470;53.550;9.926;2023-09-07T21:15:16;101748.69;;;26.06;47.54
43824;BME280;29470;53.550;9.926;2023-09-07T21:20:21;101744.38;;;26.10;47.41
43824;BME280;29470;53.550;9.926;2023-09-07T21:25:24;101739.63;;;25.95;47.14
43824;BME280;29470;53.550;9.926;2023-09-07T21:30:28;101741.06;;;25.79;47.49
43824;BME280;29470;53.550;9.926;2023-09-07T21:35:35;101736.13;;;25.56;47.62
43824;BME280;29470;53.550;9.926;2023-09-07T21:40:38;101735.81;;;25.43;47.78
43824;BME280;29470;53.550;9.926;2023-09-07T21:45:41;101736.66;;;25.42;47.66
43824;BME280;29470;53.550;9.926;2023-09-07T21:50:46;101731.22;;;25.36;47.52
43824;BME280;29470;53.550;9.926;2023-09-07T21:55:49;101731.56;;;25.49;47.31
43824;BME280;29470;53.550;9.926;2023-09-07T22:00:52;101739.22;;;25.38;47.37
43824;BME280;29470;53.550;9.926;2023-09-07T22:05:56;101734.19;;;25.49;46.81
43824;BME280;29470;53.550;9.926;2023-09-07T22:10:59;101739.44;;;25.46;47.32
43824;BME280;29470;53.550;9.926;2023-09-07T22:16:03;101729.97;;;25.57;46.86
43824;BME280;29470;53.550;9.926;2023-09-07T22:21:07;101727.63;;;25.33;47.33
43824;BME280;29470;53.550;9.926;2023-09-07T22:26:11;101729.91;;;25.17;47.83
43824;BME280;29470;53.550;9.926;2023-09-07T22:31:14;101720.97;;;25.13;47.65
43824;BME280;29470;53.550;9.926;2023-09-07T22:36:19;101717.03;;;25.33;46.89
43824;BME280;29470;53.550;9.926;2023-09-07T22:41:22;101718.09;;;25.04;47.22
43824;BME280;29470;53.550;9.926;2023-09-07T22:46:26;101715.81;;;25.20;46.82
43824;BME280;29470;53.550;9.926;2023-09-07T22:51:30;101717.38;;;25.45;46.42
43824;BME280;29470;53.550;9.926;2023-09-07T22:56:33;101724.94;;;25.31;46.60
43824;BME280;29470;53.550;9.926;2023-09-07T23:01:36;101726.25;;;25.49;45.88
43824;BME280;29470;53.550;9.926;2023-09-07T23:06:40;101723.47;;;25.07;46.69
43824;BME280;29470;53.550;9.926;2023-09-07T23:11:43;101721.84;;;25.12;46.62
43824;BME280;29470;53.550;9.926;2023-09-07T23:16:46;101724.28;;;25.40;46.15
43824;BME280;29470;53.550;9.926;2023-09-07T23:21:54;101725.59;;;25.57;45.58
43824;BME280;29470;53.550;9.926;2023-09-07T23:26:57;101719.94;;;25.07;46.70
43824;BME280;29470;53.550;9.926;2023-09-07T23:32:00;101721.28;;;25.26;46.22
43824;BME280;29470;53.550;9.926;2023-09-07T23:37:04;101720.88;;;24.74;47.31
43824;BME280;29470;53.550;9.926;2023-09-07T23:42:09;101714.75;;;24.76;47.36
43824;BME280;29470;53.550;9.926;2023-09-07T23:47:12;101724.78;;;24.56;47.74
43824;BME280;29470;53.550;9.926;2023-09-07T23:52:16;101713.97;;;24.80;47.32
43824;BME280;29470;53.550;9.926;2023-09-07T23:57:20;101718.28;;;24.43;48.09
